logo
Rechercher aéroport 
image banner adimage banner adimage banner ad
image banner ad

SHSK - Skua 1

Situé à Primavera, Chile

ICAO - SHSK, IATA -

Données fournies par Airmate  

Information générale

Coordonnées: S52°24'33" W68°47'7"
Élévation : 98 feet MSL.
 
Voir autres Aéroports à Magallanes

Données opérationnelles

Special qualification required
Heure actuelle UTC:
Heure actuelle locale:
Météo à : - ( 0 km )
METAR: KATL 020052Z 11004KT 10SM BKN017 OVC025 18/15 A3005 RMK AO2 SLP173 T01780150
TAF: KATL 020110Z 0201/0306 15004KT P6SM -DZ SCT008 OVC014 FM020300 14004KT 5SM -DZ BR SCT003 OVC007 FM020500 13004KT 2SM -DZ BR OVC003 TEMPO 0207/0211 3/4SM BR OVC002 FM021100 15006KT 2SM -RA BR OVC003 FM021600 17008KT 4SM -SHRA BR OVC003 FM030000 19006KT 3SM -SHRA BR OVC003
Voir NOTAMs / SUP AIP / TFR affectant cet aéroport [VIEW]
Fréquences de communication: [VIEW]

Pistes:

Coordonnées de l'aéroport

Adresse: Primavera Chile

Vue satellite de SHSK